createdAt,value
2018-09-28T00:01:50.769Z,96754.26
2018-09-28T00:04:20.566Z,96760.63
2018-09-28T00:06:50.369Z,96752.32
2018-09-28T00:09:20.229Z,96755.19
2018-09-28T00:11:50.131Z,96750.70
2018-09-28T00:14:20.447Z,96747.40
2018-09-28T00:16:50.321Z,96749.95
2018-09-28T00:19:20.299Z,96748.14
2018-09-28T00:21:50.142Z,96747.35
2018-09-28T00:24:20.777Z,96742.72
2018-09-28T00:26:50.640Z,96737.66
2018-09-28T00:29:20.457Z,96736.33
2018-09-28T00:31:50.393Z,96735.50
2018-09-28T00:34:20.231Z,96727.42
2018-09-28T00:36:50.299Z,96720.47
2018-09-28T00:39:20.375Z,96716.37
2018-09-28T00:41:50.263Z,96717.25
2018-09-28T00:44:20.223Z,96717.39
2018-09-28T00:46:50.106Z,96711.87
2018-09-28T00:49:20.126Z,96710.22
2018-09-28T00:51:50.108Z,96718.29
2018-09-28T00:54:19.980Z,96713.91
2018-09-28T00:56:49.825Z,96711.14
2018-09-28T00:59:19.667Z,96710.78
2018-09-28T01:01:49.724Z,96707.23
2018-09-28T01:04:19.526Z,96698.82
2018-09-28T01:06:49.327Z,96705.83
2018-09-28T01:09:19.290Z,96702.13
2018-09-28T01:11:49.099Z,96702.16
2018-09-28T01:14:18.919Z,96694.55
2018-09-28T01:16:48.769Z,96693.97
2018-09-28T01:19:18.649Z,96687.53
2018-09-28T01:21:48.462Z,96687.36
2018-09-28T01:24:18.622Z,96689.15
2018-09-28T01:26:48.487Z,96683.69
2018-09-28T01:29:18.290Z,96684.11
2018-09-28T01:31:48.178Z,96684.08
2018-09-28T01:34:18.163Z,96678.62
2018-09-28T01:36:47.997Z,96682.14
2018-09-28T01:39:17.887Z,96675.25
2018-09-28T01:41:47.672Z,96673.73
2018-09-28T01:44:17.572Z,96669.97
2018-09-28T01:46:47.383Z,96668.20
2018-09-28T01:49:17.174Z,96673.52
2018-09-28T01:51:47.023Z,96664.51
2018-09-28T01:54:16.862Z,96660.41
2018-09-28T01:56:46.710Z,96656.53
2018-09-28T01:59:16.635Z,96657.74
2018-09-28T02:01:46.526Z,96648.28
2018-09-28T02:04:16.354Z,96654.40
2018-09-28T02:06:46.188Z,96654.11
2018-09-28T02:09:16.096Z,96650.41
2018-09-28T02:11:45.944Z,96646.00
2018-09-28T02:14:15.816Z,96641.32
2018-09-28T02:16:45.671Z,96639.02
2018-09-28T02:19:15.546Z,96628.86
2018-09-28T02:21:45.400Z,96639.20
2018-09-28T02:24:15.320Z,96624.09
2018-09-28T02:26:45.116Z,96625.70
2018-09-28T02:29:14.922Z,96629.47
2018-09-28T02:31:44.875Z,96624.59
2018-09-28T02:34:14.672Z,96619.20
2018-09-28T02:36:44.506Z,96621.78
2018-09-28T02:39:14.346Z,96614.53
2018-09-28T02:41:44.140Z,96615.99
2018-09-28T02:45:43.400Z,96618.28
2018-09-28T02:48:13.560Z,96615.55
2018-09-28T02:50:43.328Z,96609.84
2018-09-28T02:53:18.080Z,96609.48
2018-09-28T02:55:49.586Z,96610.44
2018-09-28T02:58:19.471Z,96602.66
2018-09-28T03:00:49.329Z,96605.48
2018-09-28T03:03:19.208Z,96597.12
2018-09-28T03:05:49.008Z,96598.08
2018-09-28T03:08:18.939Z,96599.84
2018-09-28T03:10:48.757Z,96593.22
2018-09-28T03:13:18.626Z,96600.03
2018-09-28T03:15:48.628Z,96597.20
2018-09-28T03:18:18.431Z,96598.75
2018-09-28T03:20:48.325Z,96595.05
2018-09-28T03:23:18.211Z,96597.33
2018-09-28T03:25:48.301Z,96589.37
2018-09-28T03:28:18.247Z,96599.80
2018-09-28T03:30:48.067Z,96594.39
2018-09-28T03:33:17.864Z,96593.08
2018-09-28T03:35:47.741Z,96592.41
2018-09-28T03:38:17.624Z,96593.60
2018-09-28T03:40:47.396Z,96595.72
2018-09-28T03:43:17.272Z,96597.38
2018-09-28T03:45:47.100Z,96596.45
2018-09-28T03:48:16.919Z,96589.15
2018-09-28T03:50:46.741Z,96590.28
2018-09-28T03:53:16.571Z,96591.88
2018-09-28T03:55:46.401Z,96589.11
2018-09-28T03:58:16.223Z,96589.50
2018-09-28T04:00:46.145Z,96590.52
2018-09-28T04:03:15.956Z,96586.52
2018-09-28T04:05:45.755Z,96592.85
2018-09-28T04:08:15.577Z,96586.42
2018-09-28T04:10:45.431Z,96586.42
2018-09-28T04:13:15.268Z,96583.41
2018-09-28T04:15:45.096Z,96580.36
2018-09-28T04:18:14.901Z,96581.59
2018-09-28T04:20:44.735Z,96585.16
2018-09-28T04:23:14.761Z,96588.33
2018-09-28T04:25:44.627Z,96586.48
2018-09-28T04:28:14.459Z,96586.38
2018-09-28T04:30:44.299Z,96585.81
2018-09-28T04:33:14.205Z,96580.58
2018-09-28T04:35:44.011Z,96575.59
2018-09-28T04:38:13.885Z,96578.85
2018-09-28T04:40:43.772Z,96581.28
2018-09-28T04:43:13.567Z,96575.45
2018-09-28T04:45:43.566Z,96577.20
2018-09-28T04:48:13.549Z,96578.05
2018-09-28T04:50:43.341Z,96578.84
2018-09-28T04:53:13.211Z,96570.98
2018-09-28T04:55:43.023Z,96573.30
2018-09-28T04:58:13.056Z,96576.75
2018-09-28T05:00:42.932Z,96578.69
2018-09-28T05:03:12.769Z,96580.23
2018-09-28T05:05:42.626Z,96581.59
2018-09-28T05:08:12.423Z,96582.77
2018-09-28T05:10:42.394Z,96576.15
2018-09-28T05:13:12.203Z,96584.32
2018-09-28T05:15:42.220Z,96580.23
2018-09-28T05:18:12.093Z,96581.98
2018-09-28T05:20:41.895Z,96585.73
2018-09-28T05:23:11.846Z,96582.81
2018-09-28T05:25:41.698Z,96579.83
2018-09-28T05:28:11.559Z,96582.95
2018-09-28T05:30:44.966Z,96589.77
2018-09-28T05:33:11.436Z,96582.95
2018-09-28T05:35:41.276Z,96588.22
2018-09-28T05:38:11.140Z,96592.69
2018-09-28T05:40:41.246Z,96593.48
2018-09-28T05:43:11.088Z,96598.55
2018-09-28T05:45:40.981Z,96599.28
2018-09-28T05:48:10.809Z,96598.50
2018-09-28T05:50:40.773Z,96604.20
2018-09-28T05:53:10.803Z,96599.56
2018-09-28T05:55:40.792Z,96608.52
2018-09-28T05:58:15.771Z,96612.57
2018-09-28T06:00:50.672Z,96612.19
2018-09-28T06:03:22.412Z,96612.02
2018-09-28T06:06:00.724Z,96611.45
2018-09-28T06:08:31.032Z,96606.09
2018-09-28T06:11:00.857Z,96599.50
2018-09-28T06:13:30.686Z,96603.06
2018-09-28T06:16:00.520Z,96607.90
2018-09-28T06:18:30.384Z,96611.85
2018-09-28T06:21:00.469Z,96612.83
2018-09-28T06:23:30.234Z,96615.45
2018-09-28T06:25:59.997Z,96619.33
2018-09-28T06:28:29.929Z,96617.25
2018-09-28T06:30:59.721Z,96620.06
2018-09-28T06:33:29.499Z,96620.25
2018-09-28T06:35:59.355Z,96613.03
2018-09-28T06:38:29.339Z,96622.31
2018-09-28T06:40:59.111Z,96614.92
2018-09-28T06:43:28.870Z,96613.59
2018-09-28T06:45:58.624Z,96620.42
2018-09-28T06:48:28.388Z,96616.48
2018-09-28T06:50:58.180Z,96615.54
2018-09-28T06:53:28.285Z,96622.15
2018-09-28T06:55:58.086Z,96622.72
2018-09-28T06:58:27.862Z,96623.61
2018-09-28T07:00:57.612Z,96625.80
2018-09-28T07:03:27.358Z,96626.52
2018-09-28T07:05:57.138Z,96620.78
2018-09-28T07:08:27.139Z,96625.16
2018-09-28T07:10:57.026Z,96621.92
2018-09-28T07:13:26.798Z,96626.45
2018-09-28T07:15:56.584Z,96630.21
2018-09-28T07:18:26.445Z,96626.27
2018-09-28T07:20:56.386Z,96633.09
2018-09-28T07:23:26.127Z,96627.84
2018-09-28T07:25:56.020Z,96623.49
2018-09-28T07:28:25.816Z,96632.01
2018-09-28T07:30:55.596Z,96632.17
2018-09-28T07:33:25.333Z,96627.44
2018-09-28T07:35:55.123Z,96635.61
2018-09-28T07:38:25.142Z,96635.45
2018-09-28T07:40:55.481Z,96633.08
2018-09-28T07:44:55.234Z,96635.59
2018-09-28T07:47:25.576Z,96632.40
2018-09-28T07:49:55.922Z,96635.83
2018-09-28T07:52:26.271Z,96640.26
2018-09-28T07:54:56.648Z,96630.98
2018-09-28T07:57:27.004Z,96633.45
2018-09-28T07:59:57.407Z,96637.89
2018-09-28T08:02:27.698Z,96639.45
2018-09-28T08:04:58.323Z,96638.13
2018-09-28T08:07:28.661Z,96641.59
2018-09-28T08:09:59.001Z,96638.10
2018-09-28T08:12:29.349Z,96635.18
2018-09-28T08:14:59.695Z,96633.14
2018-09-28T08:17:30.074Z,96632.99
2018-09-28T08:20:00.469Z,96643.38
2018-09-28T08:22:30.794Z,96636.55
2018-09-28T08:25:01.199Z,96630.57
2018-09-28T08:27:31.553Z,96625.92
2018-09-28T08:30:01.549Z,96623.75
2018-09-28T08:32:31.319Z,96624.93
2018-09-28T08:35:01.175Z,96624.13
2018-09-28T08:37:30.952Z,96630.63
2018-09-28T08:40:00.717Z,96631.87
2018-09-28T08:42:30.523Z,96625.48
2018-09-28T08:45:00.295Z,96628.56
2018-09-28T08:47:30.121Z,96630.01
2018-09-28T08:49:59.946Z,96626.14
2018-09-28T08:52:29.683Z,96623.41
2018-09-28T08:54:59.433Z,96626.13
2018-09-28T08:57:29.181Z,96611.90
2018-09-28T08:59:59.055Z,96610.81
2018-09-28T09:02:28.858Z,96606.66
2018-09-28T09:04:58.675Z,96597.70
2018-09-28T09:07:28.434Z,96597.98
2018-09-28T09:09:58.255Z,96599.44
2018-09-28T09:12:28.039Z,96599.51
2018-09-28T09:14:57.901Z,96598.08
2018-09-28T09:17:27.745Z,96596.34
2018-09-28T09:19:58.073Z,96597.28
2018-09-28T09:22:28.418Z,96597.11
2018-09-28T09:24:58.795Z,96590.23
2018-09-28T09:27:29.272Z,96595.92
2018-09-28T09:29:59.644Z,96592.06
2018-09-28T09:32:29.677Z,96591.16
2018-09-28T09:35:00.057Z,96587.91
2018-09-28T09:37:30.447Z,96582.19
2018-09-28T09:40:00.842Z,96590.20
2018-09-28T09:42:30.641Z,96587.53
2018-09-28T09:45:00.627Z,96583.41
2018-09-28T09:47:31.007Z,96586.11
2018-09-28T09:50:00.773Z,96581.09
2018-09-28T09:52:30.533Z,96581.72
2018-09-28T09:55:00.910Z,96569.50
2018-09-28T09:57:31.247Z,96578.58
2018-09-28T10:00:01.672Z,96569.51
2018-09-28T10:02:37.521Z,96564.59
2018-09-28T10:05:07.916Z,96564.48
2018-09-28T10:07:38.251Z,96567.77
2018-09-28T10:10:08.659Z,96553.98
2018-09-28T10:12:39.092Z,96550.58
2018-09-28T10:15:09.588Z,96552.16
2018-09-28T10:17:39.938Z,96549.99
2018-09-28T10:20:10.337Z,96542.23
2018-09-28T10:22:40.937Z,96544.89
2018-09-28T10:25:11.337Z,96544.30
2018-09-28T10:27:41.777Z,96538.13
2018-09-28T10:30:12.690Z,96533.80
2018-09-28T10:32:43.032Z,96535.04
2018-09-28T10:35:13.781Z,96529.05
2018-09-28T10:37:44.172Z,96522.22
2018-09-28T10:40:14.642Z,96526.27
2018-09-28T10:42:45.153Z,96524.55
2018-09-28T10:45:15.595Z,96520.63
2018-09-28T10:47:46.106Z,96509.98
2018-09-28T10:50:16.515Z,96513.38
2018-09-28T10:52:47.041Z,96515.20
2018-09-28T10:55:17.502Z,96517.33
2018-09-28T10:57:47.876Z,96519.13
2018-09-28T11:00:18.341Z,96516.84
2018-09-28T11:02:48.834Z,96516.46
2018-09-28T11:05:19.278Z,96513.36
2018-09-28T11:07:49.654Z,96508.26
2018-09-28T11:10:20.224Z,96507.67
2018-09-28T11:12:50.822Z,96499.18
2018-09-28T11:15:21.165Z,96499.94
2018-09-28T11:17:51.721Z,96495.36
2018-09-28T11:20:22.094Z,96501.87
2018-09-28T11:22:53.322Z,96496.67
2018-09-28T11:25:23.634Z,96498.42
2018-09-28T11:27:54.005Z,96485.92
2018-09-28T11:30:24.351Z,96482.19
2018-09-28T11:32:54.651Z,96485.28
2018-09-28T11:35:25.090Z,96479.59
2018-09-28T11:37:55.435Z,96479.37
2018-09-28T11:40:25.896Z,96476.40
2018-09-28T11:42:56.286Z,96472.81
2018-09-28T11:45:26.942Z,96473.00
2018-09-28T11:47:57.388Z,96464.26
2018-09-28T11:50:27.818Z,96460.40
2018-09-28T11:52:58.256Z,96459.61
2018-09-28T11:55:28.668Z,96456.28
2018-09-28T11:58:16.915Z,96447.36
2018-09-28T12:00:47.328Z,96436.34
2018-09-28T12:03:17.698Z,96432.48
2018-09-28T12:05:48.254Z,96427.81
2018-09-28T12:08:18.624Z,96424.44
2018-09-28T12:10:48.963Z,96418.37
2018-09-28T12:13:19.564Z,96414.58
2018-09-28T12:15:50.265Z,96415.67
2018-09-28T12:18:20.770Z,96414.88
2018-09-28T12:20:51.310Z,96406.69
2018-09-28T12:23:21.736Z,96401.13
2018-09-28T12:25:52.140Z,96405.89
2018-09-28T12:28:22.444Z,96403.66
2018-09-28T12:30:52.867Z,96397.55
2018-09-28T12:33:23.310Z,96395.85
2018-09-28T12:35:54.087Z,96399.72
2018-09-28T12:38:24.538Z,96393.52
2018-09-28T12:40:54.882Z,96395.37
2018-09-28T12:43:25.244Z,96395.84
2018-09-28T12:45:56.121Z,96385.69
2018-09-28T12:48:26.505Z,96385.23
2018-09-28T12:50:57.029Z,96386.78
2018-09-28T12:53:27.480Z,96381.97
2018-09-28T12:55:58.047Z,96378.81
2018-09-28T12:58:28.592Z,96372.84
2018-09-28T13:00:59.053Z,96359.25
2018-09-28T13:03:31.214Z,96357.83
2018-09-28T13:06:01.589Z,96362.45
2018-09-28T13:08:32.019Z,96351.67
2018-09-28T13:11:02.584Z,96353.38
2018-09-28T13:13:32.995Z,96353.84
2018-09-28T13:16:03.394Z,96341.80
2018-09-28T13:18:33.768Z,96339.47
2018-09-28T13:21:04.365Z,96345.83
2018-09-28T13:23:34.908Z,96336.38
2018-09-28T13:26:05.282Z,96331.89
2018-09-28T13:28:35.763Z,96326.04
2018-09-28T13:31:06.135Z,96331.75
2018-09-28T13:33:36.914Z,96327.28
2018-09-28T13:36:07.843Z,96319.55
2018-09-28T13:38:38.470Z,96321.09
2018-09-28T13:41:09.315Z,96315.03
2018-09-28T13:43:39.740Z,96324.95
2018-09-28T13:46:10.135Z,96316.77
2018-09-28T13:48:40.695Z,96317.56
2018-09-28T13:51:11.235Z,96312.92
2018-09-28T13:53:41.669Z,96313.23
2018-09-28T13:56:12.245Z,96309.67
2018-09-28T13:58:42.967Z,96308.75
2018-09-28T14:01:13.437Z,96309.22
2018-09-28T14:03:43.808Z,96299.31
2018-09-28T14:06:14.235Z,96297.91
2018-09-28T14:08:44.812Z,96300.67
2018-09-28T14:12:16.127Z,96296.81
2018-09-28T14:14:46.769Z,96297.16
2018-09-28T14:17:17.273Z,96290.98
2018-09-28T14:19:47.703Z,96298.56
2018-09-28T14:22:18.186Z,96299.47
2018-09-28T14:24:48.725Z,96283.58
2018-09-28T14:27:19.295Z,96286.02
2018-09-28T14:29:49.630Z,96284.15
2018-09-28T14:32:20.051Z,96283.70
2018-09-28T14:34:50.718Z,96278.91
2018-09-28T14:37:21.197Z,96279.77
2018-09-28T14:39:51.587Z,96280.95
2018-09-28T14:42:21.965Z,96273.72
2018-09-28T14:44:52.542Z,96275.87
2018-09-28T14:47:23.141Z,96276.91
2018-09-28T14:49:53.513Z,96273.37
2018-09-28T14:52:23.961Z,96272.19
2018-09-28T14:54:54.605Z,96270.78
2018-09-28T14:57:25.133Z,96265.19
2018-09-28T14:59:55.481Z,96270.27
2018-09-28T15:02:26.016Z,96270.21
2018-09-28T15:04:56.531Z,96266.08
2018-09-28T15:07:26.862Z,96271.38
2018-09-28T15:09:57.381Z,96270.91
2018-09-28T15:12:27.843Z,96267.36
2018-09-28T15:14:58.437Z,96266.61
2018-09-28T15:17:28.765Z,96263.81
2018-09-28T15:19:59.148Z,96262.88
2018-09-28T15:22:29.501Z,96271.04
2018-09-28T15:24:59.864Z,96268.55
2018-09-28T15:27:30.243Z,96258.67
2018-09-28T15:30:00.641Z,96257.61
2018-09-28T15:32:31.024Z,96252.19
2018-09-28T15:35:01.390Z,96250.34
2018-09-28T15:37:31.931Z,96261.47
2018-09-28T15:40:02.318Z,96255.31
2018-09-28T15:42:32.699Z,96259.19
2018-09-28T15:45:03.464Z,96259.95
2018-09-28T15:47:33.865Z,96263.66
2018-09-28T15:50:04.398Z,96259.80
2018-09-28T15:52:34.752Z,96260.11
2018-09-28T15:55:05.098Z,96264.13
2018-09-28T15:57:35.490Z,96262.73
2018-09-28T16:00:06.091Z,96256.88
2018-09-28T16:02:36.548Z,96262.58
2018-09-28T16:05:07.102Z,96265.16
2018-09-28T16:07:37.442Z,96267.63
2018-09-28T16:10:07.861Z,96269.48
2018-09-28T16:12:38.289Z,96270.06
2018-09-28T16:15:08.706Z,96269.16
2018-09-28T16:17:39.098Z,96273.89
2018-09-28T16:20:09.840Z,96270.43
2018-09-28T16:22:40.386Z,96273.21
2018-09-28T16:25:10.802Z,96279.09
2018-09-28T16:27:41.174Z,96278.42
2018-09-28T16:30:11.586Z,96277.23
2018-09-28T16:32:41.982Z,96277.81
2018-09-28T16:35:12.420Z,96272.16
2018-09-28T16:37:42.872Z,96271.88
2018-09-28T16:40:13.360Z,96271.14
2018-09-28T16:42:43.730Z,96276.55
2018-09-28T16:45:14.108Z,96280.71
2018-09-28T16:47:44.726Z,96276.20
2018-09-28T16:50:15.120Z,96287.80
2018-09-28T16:52:45.546Z,96290.14
2018-09-28T16:55:15.922Z,96295.07
2018-09-28T16:57:46.461Z,96296.32
2018-09-28T17:00:17.136Z,96293.52
2018-09-28T17:02:47.597Z,96294.68
2018-09-28T17:05:18.032Z,96295.28
2018-09-28T17:07:48.519Z,96298.94
2018-09-28T17:10:24.212Z,96311.61
2018-09-28T17:12:54.671Z,96314.92
2018-09-28T17:15:25.102Z,96317.27
2018-09-28T17:17:55.477Z,96323.66
2018-09-28T17:20:25.930Z,96332.61
2018-09-28T17:22:56.331Z,96328.64
2018-09-28T17:25:26.699Z,96328.79
2018-09-28T17:27:57.081Z,96340.13
2018-09-28T17:30:27.492Z,96346.98
2018-09-28T17:32:57.873Z,96352.33
2018-09-28T17:35:28.265Z,96352.45
2018-09-28T17:37:58.685Z,96350.44
2018-09-28T17:40:29.089Z,96350.34
2018-09-28T17:42:59.463Z,96349.29
2018-09-28T17:45:30.401Z,96354.26
2018-09-28T17:48:00.757Z,96355.22
2018-09-28T17:50:31.135Z,96360.66
2018-09-28T17:53:01.513Z,96365.29
2018-09-28T17:55:31.893Z,96371.77
2018-09-28T17:58:02.300Z,96367.56
2018-09-28T18:00:32.713Z,96377.66
2018-09-28T18:03:03.083Z,96379.52
2018-09-28T18:05:33.494Z,96376.97
2018-09-28T18:08:04.045Z,96377.56
2018-09-28T18:10:34.444Z,96379.06
2018-09-28T18:13:04.912Z,96387.79
2018-09-28T18:15:35.352Z,96388.05
2018-09-28T18:18:05.791Z,96400.16
2018-09-28T18:20:36.202Z,96410.61
2018-09-28T18:23:06.069Z,96415.19
2018-09-28T18:25:36.402Z,96416.48
2018-09-28T18:28:06.415Z,96424.51
2018-09-28T18:30:36.198Z,96419.93
2018-09-28T18:33:06.680Z,96434.10
2018-09-28T18:35:37.012Z,96431.60
2018-09-28T18:38:06.841Z,96429.17
2018-09-28T18:40:36.778Z,96432.88
2018-09-28T18:43:06.769Z,96437.27
2018-09-28T18:45:36.571Z,96433.63
2018-09-28T18:48:06.528Z,96445.84
2018-09-28T18:50:36.847Z,96447.14
2018-09-28T18:53:07.263Z,96443.52
2018-09-28T18:55:37.031Z,96456.00
2018-09-28T18:58:07.055Z,96450.23
2018-09-28T19:00:36.911Z,96471.94
2018-09-28T19:03:06.789Z,96470.53
2018-09-28T19:05:36.839Z,96478.19
2018-09-28T19:08:06.961Z,96491.59
2018-09-28T19:10:36.853Z,96482.45
2018-09-28T19:13:06.670Z,96486.46
2018-09-28T19:15:36.647Z,96504.88
2018-09-28T19:18:06.486Z,96497.30
2018-09-28T19:20:36.299Z,96493.75
2018-09-28T19:23:06.129Z,96498.98
2018-09-28T19:25:35.934Z,96504.14
2018-09-28T19:28:05.803Z,96502.88
2018-09-28T19:30:35.600Z,96501.97
2018-09-28T19:33:05.595Z,96508.31
2018-09-28T19:35:35.377Z,96502.80
2018-09-28T19:38:05.216Z,96502.89
2018-09-28T19:40:35.120Z,96509.65
2018-09-28T19:43:04.912Z,96513.43
2018-09-28T19:45:34.773Z,96519.42
2018-09-28T19:48:04.616Z,96515.70
2018-09-28T19:50:34.417Z,96530.94
2018-09-28T19:53:04.253Z,96522.53
2018-09-28T19:55:34.092Z,96528.95
2018-09-28T19:58:03.978Z,96537.45
2018-09-28T20:00:33.850Z,96537.16
2018-09-28T20:03:03.635Z,96539.17
2018-09-28T20:05:33.451Z,96532.37
2018-09-28T20:08:03.293Z,96541.28
2018-09-28T20:10:33.131Z,96548.57
2018-09-28T20:13:02.964Z,96538.58
2018-09-28T20:15:32.975Z,96542.12
2018-09-28T20:18:02.900Z,96541.52
2018-09-28T20:20:32.779Z,96544.92
2018-09-28T20:23:02.569Z,96539.41
2018-09-28T20:25:32.483Z,96561.68
2018-09-28T20:28:02.389Z,96545.35
2018-09-28T20:30:32.179Z,96551.26
2018-09-28T20:33:02.030Z,96549.72
2018-09-28T20:35:31.825Z,96550.13
2018-09-28T20:38:01.616Z,96551.50
2018-09-28T20:40:31.464Z,96551.03
2018-09-28T20:43:01.332Z,96548.98
2018-09-28T20:45:31.200Z,96543.64
2018-09-28T20:48:01.008Z,96543.09
2018-09-28T20:50:31.195Z,96549.00
2018-09-28T20:53:01.118Z,96550.38
2018-09-28T20:55:31.154Z,96561.89
2018-09-28T20:58:01.274Z,96558.98
2018-09-28T21:00:31.144Z,96561.30
2018-09-28T21:03:01.000Z,96565.66
2018-09-28T21:05:30.855Z,96563.53
2018-09-28T21:08:00.788Z,96562.39
2018-09-28T21:10:30.684Z,96550.91
2018-09-28T21:13:00.558Z,96554.64
2018-09-28T21:15:30.434Z,96557.85
2018-09-28T21:18:00.345Z,96560.05
2018-09-28T21:20:30.231Z,96562.34
2018-09-28T21:23:00.307Z,96566.30
2018-09-28T21:25:30.118Z,96573.98
2018-09-28T21:27:59.957Z,96579.84
2018-09-28T21:30:29.787Z,96589.27
2018-09-28T21:32:59.680Z,96592.22
2018-09-28T21:35:29.521Z,96601.61
2018-09-28T21:37:59.290Z,96584.53
2018-09-28T21:44:05.244Z,96586.72
2018-09-28T21:46:35.108Z,96587.99
2018-09-28T21:49:04.956Z,96595.68
2018-09-28T21:51:34.734Z,96588.28
2018-09-28T21:54:04.578Z,96582.98
2018-09-28T21:56:34.454Z,96590.30
2018-09-28T21:59:04.285Z,96594.45
2018-09-28T22:01:34.150Z,96595.23
2018-09-28T22:04:03.926Z,96600.95
2018-09-28T22:06:33.693Z,96592.13
2018-09-28T22:09:03.661Z,96600.23
2018-09-28T22:11:33.504Z,96590.64
2018-09-28T22:14:03.342Z,96587.13
2018-09-28T22:16:33.365Z,96581.70
2018-09-28T22:19:03.266Z,96577.59
2018-09-28T22:21:33.218Z,96595.31
2018-09-28T22:24:03.019Z,96599.88
2018-09-28T22:26:32.834Z,96607.34
2018-09-28T22:29:02.707Z,96617.98
2018-09-28T22:31:32.629Z,96605.09
2018-09-28T22:34:02.611Z,96622.59
2018-09-28T22:36:32.596Z,96623.22
2018-09-28T22:39:02.457Z,96623.64
2018-09-28T22:41:32.297Z,96608.17
2018-09-28T22:44:02.128Z,96621.34
2018-09-28T22:46:31.932Z,96610.80
2018-09-28T22:49:01.717Z,96619.05
2018-09-28T22:51:31.660Z,96626.54
2018-09-28T22:54:01.441Z,96618.30
2018-09-28T22:56:31.306Z,96609.56
2018-09-28T22:59:01.155Z,96606.63
2018-09-28T23:01:31.164Z,96612.70
2018-09-28T23:04:00.940Z,96605.91
2018-09-28T23:06:30.756Z,96613.97
2018-09-28T23:09:00.562Z,96611.45
2018-09-28T23:11:30.424Z,96613.46
2018-09-28T23:14:00.225Z,96613.26
2018-09-28T23:16:30.014Z,96609.41
2018-09-28T23:18:59.828Z,96601.62
2018-09-28T23:21:30.000Z,96606.12
2018-09-28T23:24:01.358Z,96609.48
2018-09-28T23:26:31.133Z,96612.06
2018-09-28T23:29:00.925Z,96611.86
2018-09-28T23:31:30.711Z,96625.77
2018-09-28T23:34:00.563Z,96616.38
2018-09-28T23:36:30.387Z,96629.70
2018-09-28T23:39:00.221Z,96637.35
2018-09-28T23:41:29.979Z,96624.47
2018-09-28T23:43:59.811Z,96627.06
2018-09-28T23:46:29.737Z,96622.16
2018-09-28T23:48:59.480Z,96627.08
2018-09-28T23:51:29.259Z,96631.97
2018-09-28T23:53:59.001Z,96632.75
2018-09-28T23:56:28.791Z,96628.84
2018-09-28T23:58:58.785Z,96642.55
